Hammond, Montana
Current Conditions -  °F | °C
As of 12:53 AM on Thursday 27 Nov 2014 (Local Time) from KGCC Reporting Station
Few Clouds Few Clouds  
Wind Chill: 13°   Ceiling: Unl
Heat Index: 22°   Visibility: 10mi
Dew Point: 19°   Wind: 7mph
Humidity: 89%   Direction: 160°SSE
Pressure: 30.11"   Gusts: NA
Location:  45.23°N, 104.92°W
Report Text: KGCC 270753Z AUTO 16006KT 10SM FEW075 M06/M07 A3011 RMK AO2 SLP233 T10561072 TSNO
Loading
Personal Weather Stations






























Interactive Weather Map New forecast layout! Learn more

10-Day Weather Forecast

Advertisements
Track Severe Weather on mobile